Time;durP1;ratioP1;P1;durP2;ratioP2;P2;SDS_P1;SDS_P2;PMS_P1;PMS_P2;Temp;Humidity;BMP_temperature;BMP_pressure;BME280_temperature;BME280_humidity;BME280_pressure;Samples;Min_cycle;Max_cycle;Signal;HPM_P1;HPM_P2
2022/01/25 00:24:46;;;;;;;5.90;3.87;;;;;;;1.71;39.13;100441.63;5112659;28;20048;-72
2022/01/25 00:32:16;;;;;;;3.23;2.67;;;;;;;2.17;38.54;100424.25;5094360;28;20040;-73
2022/01/25 00:34:42;;;;;;;4.78;3.13;;;;;;;1.88;39.00;100419.78;5111111;28;20040;-72
2022/01/25 00:37:08;;;;;;;6.20;3.13;;;;;;;1.99;39.90;100418.25;5077744;28;20043;-72
2022/01/25 00:39:37;;;;;;;2.50;2.00;;;;;;;2.09;39.59;100411.53;5078260;28;20504;-71
2022/01/25 00:42:07;;;;;;;4.20;3.10;;;;;;;2.34;38.46;100411.03;5113352;28;20040;-71
2022/01/25 00:44:37;;;;;;;7.20;4.73;;;;;;;1.98;38.49;100405.22;5096424;28;20058;-71
2022/01/25 00:47:05;;;;;;;2.38;1.77;;;;;;;2.13;39.74;100355.44;5113230;28;20301;-71
2022/01/25 00:49:35;;;;;;;6.30;4.00;;;;;;;2.19;38.89;100399.63;5114496;28;20051;-71
2022/01/25 00:52:17;;;;;;;4.50;2.20;;;;;;;2.29;39.58;100397.34;5113075;28;20044;-71
2022/01/25 00:54:43;;;;;;;2.40;2.20;;;;;;;2.20;37.80;100393.44;5078987;28;20047;-72
2022/01/25 00:57:09;;;;;;;6.30;3.80;;;;;;;2.07;38.27;100376.75;5114270;28;20051;-71
2022/01/25 00:59:35;;;;;;;2.67;1.97;;;;;;;2.22;38.82;100372.41;5096261;28;20415;-72
2022/01/25 01:02:04;;;;;;;3.80;2.50;;;;;;;2.73;39.41;100383.34;5062098;28;20050;-72
2022/01/25 01:04:31;;;;;;;2.57;2.00;;;;;;;2.14;39.93;100336.16;5112625;28;20333;-71
2022/01/25 01:06:58;;;;;;;4.77;2.87;;;;;;;2.52;39.97;100368.00;5078802;28;20044;-72
2022/01/25 01:09:24;;;;;;;3.60;2.37;;;;;;;2.67;39.66;100381.06;5112703;28;20440;-72
2022/01/25 01:12:01;;;;;;;3.17;2.07;;;;;;;2.96;39.83;100369.69;5095567;28;20040;-72
2022/01/25 01:29:09;;;;;;;2.40;2.03;;;;;;;2.26;38.91;100330.19;5097725;28;20139;-71
2022/01/25 01:39:08;;;;;;;8.03;3.40;;;;;;;2.18;38.54;100335.06;5112226;28;20047;-71
2022/01/25 01:43:54;;;;;;;1.27;1.17;;;;;;;2.32;39.81;100318.53;5094377;28;20142;-72
2022/01/25 01:46:56;;;;;;;1.70;1.60;;;;;;;2.38;39.27;100316.41;5079136;28;20052;-72
2022/01/25 01:49:09;;;;;;;2.97;2.30;;;;;;;2.37;38.82;100306.00;5080253;28;20152;-72
2022/01/25 01:51:38;;;;;;;1.87;1.50;;;;;;;2.45;39.81;100303.75;5079325;28;20039;-76
2022/01/25 01:54:08;;;;;;;2.27;1.73;;;;;;;2.76;39.58;100275.63;5095299;28;20051;-72
2022/01/25 01:56:34;;;;;;;2.97;2.07;;;;;;;2.61;40.02;100294.06;5094515;28;20047;-71
2022/01/25 01:59:03;;;;;;;2.10;1.90;;;;;;;3.02;40.00;100284.50;5077285;28;20048;-71
2022/01/25 02:01:30;;;;;;;3.70;3.40;;;;;;;2.67;38.93;100252.56;5077309;28;20462;-71
2022/01/25 02:03:57;;;;;;;3.40;2.50;;;;;;;2.60;39.59;100240.75;5094334;28;20387;-71
2022/01/25 02:06:23;;;;;;;5.23;3.43;;;;;;;2.68;39.49;100274.38;5111139;28;20039;-71
2022/01/25 02:08:49;;;;;;;4.80;4.13;;;;;;;2.28;38.01;100252.34;5111656;28;20044;-72
2022/01/25 02:11:15;;;;;;;4.23;2.07;;;;;;;2.48;39.27;100269.50;5061051;28;20082;-71
2022/01/25 02:13:42;;;;;;;3.87;2.63;;;;;;;2.42;39.33;100251.50;5094015;28;20039;-76
2022/01/25 02:16:15;;;;;;;6.47;3.17;;;;;;;2.53;39.82;100249.09;5077370;28;20486;-72
2022/01/25 02:24:09;;;;;;;6.87;3.80;;;;;;;1.79;38.11;100211.63;5096525;28;20047;-74
2022/01/25 02:26:35;;;;;;;4.67;3.20;;;;;;;1.99;38.80;100249.75;5075946;28;20207;-73
2022/01/25 02:29:01;;;;;;;3.40;3.10;;;;;;;1.95;39.04;100245.63;5075140;28;20378;-74
2022/01/25 02:31:30;;;;;;;5.87;3.50;;;;;;;2.17;38.43;100202.34;5058398;28;20035;-72
2022/01/25 02:33:55;;;;;;;6.57;3.83;;;;;;;1.84;38.76;100238.41;5059275;28;20487;-72
2022/01/25 02:36:26;;;;;;;2.47;2.00;;;;;;;2.34;39.56;100231.00;5074835;28;20080;-72
2022/01/25 02:38:52;;;;;;;4.90;3.45;;;;;;;2.10;38.79;100216.75;5092402;28;20048;-71
2022/01/25 02:41:18;;;;;;;3.33;2.30;;;;;;;2.09;39.20;100228.16;5075525;28;20078;-72
2022/01/25 02:43:46;;;;;;;3.07;2.27;;;;;;;2.16;39.70;100226.88;5092760;28;20075;-70
2022/01/25 02:48:52;;;;;;;3.30;2.50;;;;;;;2.57;39.44;100167.53;5093584;28;20122;-70
2022/01/25 02:51:20;;;;;;;3.77;2.47;;;;;;;2.51;39.22;100215.09;5110075;28;20096;-72
2022/01/25 02:53:45;;;;;;;6.73;3.17;;;;;;;2.28;39.92;100202.56;5092925;28;20047;-74
2022/01/25 02:56:16;;;;;;;2.40;1.93;;;;;;;2.67;39.48;100210.63;5076084;28;20394;-72
2022/01/25 02:58:42;;;;;;;6.35;3.60;;;;;;;2.33;38.38;100216.22;5110540;28;20156;-71
2022/01/25 03:01:08;;;;;;;8.27;5.00;;;;;;;2.25;37.72;100202.72;5109840;28;20055;-71
2022/01/25 03:03:34;;;;;;;2.53;2.07;;;;;;;2.32;38.62;100213.69;5059703;28;20125;-71
2022/01/25 03:05:59;;;;;;;2.83;2.47;;;;;;;2.32;38.37;100213.69;5092768;28;20042;-70
2022/01/25 03:12:14;;;;;;;2.47;1.80;;;;;;;2.45;38.97;100218.09;5110732;28;20051;-72
2022/01/25 03:24:06;;;;;;;1.60;1.50;;;;;;;3.09;39.30;100213.16;5109044;28;20043;-72
2022/01/25 03:26:33;;;;;;;4.67;2.40;;;;;;;2.84;39.75;100201.69;5092534;28;20061;-71
2022/01/25 03:29:00;;;;;;;5.37;3.20;;;;;;;2.79;39.16;100209.00;5092855;28;20104;-73
2022/01/25 03:31:26;;;;;;;3.27;2.40;;;;;;;2.82;39.31;100209.66;5092995;28;20043;-72
2022/01/25 03:33:52;;;;;;;5.37;3.10;;;;;;;2.73;39.83;100199.75;5075844;28;20053;-72
2022/01/25 03:36:19;;;;;;;7.17;4.10;;;;;;;3.12;39.38;100201.66;5075999;28;20036;-72
2022/01/25 03:38:45;;;;;;;6.97;4.10;;;;;;;2.88;39.87;100190.06;5093605;28;20145;-71
2022/01/25 03:41:13;;;;;;;6.00;3.23;;;;;;;3.13;39.67;100183.19;5075959;28;20108;-72
2022/01/25 03:43:39;;;;;;;5.17;3.80;;;;;;;2.69;37.90;100186.91;5075506;28;20202;-71
2022/01/25 03:46:19;;;;;;;9.23;4.20;;;;;;;2.78;38.22;100189.78;5075096;28;20044;-71
2022/01/25 03:51:30;;;;;;;5.03;3.20;;;;;;;1.95;38.06;100175.75;5077660;28;20048;-71
2022/01/25 03:53:55;;;;;;;4.27;3.20;;;;;;;1.88;39.01;100176.22;5091176;28;20048;-71
2022/01/25 03:56:23;;;;;;;4.00;3.40;;;;;;;2.08;38.19;100187.19;5109145;28;20048;-72
2022/01/25 03:58:49;;;;;;;3.57;2.83;;;;;;;1.76;38.77;100183.00;5092465;28;20048;-71
2022/01/25 04:01:15;;;;;;;7.10;4.50;;;;;;;1.54;38.18;100180.78;5091911;28;20044;-71
2022/01/25 04:03:48;;;;;;;3.50;2.83;;;;;;;1.43;38.76;100166.66;5091373;28;20039;-72
2022/01/25 04:06:19;;;;;;;3.83;2.70;;;;;;;1.60;38.91;100166.47;5091781;28;20047;-70
2022/01/25 04:08:45;;;;;;;;;;;;;;;2.27;38.50;100158.94;5076224;28;20086;-71
2022/01/25 04:11:11;;;;;;;2.33;2.17;;;;;;;1.40;38.63;100164.19;5074555;28;20243;-72
2022/01/25 04:13:36;;;;;;;3.33;3.03;;;;;;;1.36;38.86;100147.84;5074995;28;20543;-71
2022/01/25 04:16:10;;;;;;;4.23;3.40;;;;;;;1.35;38.81;100159.19;5088985;28;20059;-77
2022/01/25 04:18:49;;;;;;;2.80;2.50;;;;;;;1.04;38.55;100134.88;5070934;28;20064;-71
2022/01/25 04:26:56;;;;;;;2.00;1.90;;;;;;;1.16;39.46;100128.97;5070526;28;20068;-66
2022/01/25 04:29:23;;;;;;;2.77;2.57;;;;;;;1.18;39.52;100150.66;5071036;28;20097;-66
2022/01/25 04:31:49;;;;;;;2.23;2.03;;;;;;;0.87;39.26;100121.91;5087966;28;20075;-67
2022/01/25 04:55:47;;;;;;;2.30;2.10;;;;;;;1.16;39.58;100118.50;5088442;28;20058;-66
2022/01/25 04:58:21;;;;;;;3.73;3.07;;;;;;;1.06;39.23;100122.56;5087771;28;20051;-66
2022/01/25 05:00:48;;;;;;;2.60;2.07;;;;;;;1.02;39.66;100100.13;5088520;28;20123;-66
2022/01/25 05:03:21;;;;;;;4.57;2.60;;;;;;;1.23;40.52;100106.75;5086848;28;20097;-67
2022/01/25 05:05:58;;;;;;;3.60;2.20;;;;;;;1.46;40.47;100103.66;5072564;28;20040;-68
2022/01/25 05:11:04;;;;;;;3.30;2.43;;;;;;;1.66;40.52;100100.72;5090739;28;20051;-67
2022/01/25 05:13:45;;;;;;;7.37;3.63;;;;;;;1.72;40.50;100085.44;5090268;28;20064;-66
2022/01/25 05:18:40;;;;;;;5.30;3.10;;;;;;;1.86;40.38;100086.41;5091437;28;20043;-66
2022/01/25 05:23:50;;;;;;;3.73;2.97;;;;;;;2.13;39.02;100088.19;5092024;28;20052;-67
2022/01/25 05:26:16;;;;;;;4.10;3.03;;;;;;;1.61;38.80;100043.34;5092041;28;20040;-66
2022/01/25 05:28:42;;;;;;;3.70;2.90;;;;;;;1.81;39.53;100088.47;5107639;28;20411;-66
2022/01/25 05:31:07;;;;;;;6.97;3.30;;;;;;;1.65;39.66;100029.16;5091760;28;20097;-66
2022/01/25 05:33:33;;;;;;;2.90;2.10;;;;;;;1.93;40.28;100065.00;5092090;28;20036;-66
2022/01/25 05:35:59;;;;;;;3.70;2.90;;;;;;;1.84;38.94;100072.56;5073961;28;20051;-66
2022/01/25 05:38:25;;;;;;;5.77;3.50;;;;;;;1.89;39.95;100063.50;5090303;28;20521;-67
2022/01/25 05:41:02;;;;;;;4.47;2.60;;;;;;;2.02;40.33;100069.66;5092422;28;20036;-66
2022/01/25 05:46:14;;;;;;;2.70;2.50;;;;;;;2.26;39.61;100064.69;5091588;28;20080;-67
2022/01/25 05:48:40;;;;;;;2.63;2.03;;;;;;;2.15;39.60;100057.50;5089939;28;20046;-67
2022/01/25 05:51:06;;;;;;;5.30;3.03;;;;;;;2.24;39.54;100050.84;5089608;28;20496;-68
2022/01/25 05:53:32;;;;;;;3.47;2.80;;;;;;;1.92;38.55;100042.38;5091508;28;20043;-68
2022/01/25 05:55:58;;;;;;;6.67;3.80;;;;;;;1.88;38.22;100038.22;5099067;28;20049;-68
2022/01/25 05:58:25;;;;;;;3.73;3.40;;;;;;;1.80;38.52;100050.94;5109555;28;20404;-67
2022/01/25 06:00:51;;;;;;;5.27;3.20;;;;;;;1.59;39.01;100039.16;5111802;28;20040;-69
2022/01/25 06:03:17;;;;;;;4.03;3.13;;;;;;;1.70;38.44;100040.22;5076644;28;20096;-67
2022/01/25 06:05:43;;;;;;;4.50;3.20;;;;;;;1.52;38.69;100032.63;5105750;28;20570;-66
2022/01/25 06:08:09;;;;;;;3.23;2.57;;;;;;;1.35;38.43;100041.47;5105789;28;20142;-66
2022/01/25 06:10:35;;;;;;;4.43;3.60;;;;;;;1.34;38.73;100036.31;5096265;28;20123;-68
2022/01/25 06:13:01;;;;;;;2.93;2.73;;;;;;;1.29;38.54;100041.00;5104280;28;20134;-68
2022/01/25 06:15:27;;;;;;;4.40;3.03;;;;;;;1.22;38.48;100034.44;5111220;28;20062;-67
2022/01/25 06:17:52;;;;;;;4.30;3.67;;;;;;;1.09;38.41;100021.22;5109128;28;20039;-69
2022/01/25 06:20:18;;;;;;;2.90;2.63;;;;;;;1.25;38.83;100026.41;5092516;28;20036;-68
2022/01/25 06:22:44;;;;;;;4.40;3.13;;;;;;;1.19;39.05;100032.00;5098548;28;20040;-67
2022/01/25 06:25:11;;;;;;;3.80;3.17;;;;;;;1.42;38.60;100028.84;5090669;28;20051;-68
2022/01/25 06:27:40;;;;;;;4.23;3.37;;;;;;;1.31;38.40;99984.16;5089186;28;20048;-67
2022/01/25 06:30:24;;;;;;;3.23;2.87;;;;;;;1.87;37.98;100012.16;5090216;28;20127;-68
2022/01/25 06:32:50;;;;;;;6.40;3.63;;;;;;;1.32;38.31;99998.97;5091012;28;20055;-67
2022/01/25 06:35:16;;;;;;;1.70;1.60;;;;;;;1.48;38.46;100007.56;5089538;28;20039;-67
2022/01/25 06:37:42;;;;;;;4.57;2.87;;;;;;;0.81;38.85;99950.56;5090377;28;20119;-67
2022/01/25 06:40:09;;;;;;;4.40;3.63;;;;;;;1.31;38.70;100007.72;5090275;28;20484;-67
2022/01/25 06:42:36;;;;;;;1.67;1.57;;;;;;;1.11;38.42;100003.66;5090182;28;20040;-67
2022/01/25 06:45:11;;;;;;;3.83;2.53;;;;;;;1.36;38.42;100000.44;5088921;28;20040;-67
2022/01/25 06:47:37;;;;;;;3.50;2.53;;;;;;;1.05;38.77;100003.19;5088917;28;20475;-67
2022/01/25 06:50:03;;;;;;;3.83;3.53;;;;;;;1.17;38.58;99992.84;5090227;28;20062;-67
2022/01/25 06:52:29;;;;;;;2.93;2.57;;;;;;;1.02;39.08;99992.91;5089555;28;20044;-67
2022/01/25 06:54:55;;;;;;;3.13;2.90;;;;;;;1.05;38.62;99979.66;5099789;28;20047;-66
2022/01/25 06:57:20;;;;;;;3.47;2.73;;;;;;;1.05;38.79;99985.72;5110745;28;20142;-67
2022/01/25 06:59:46;;;;;;;2.20;2.10;;;;;;;0.94;38.63;99980.28;5109930;28;20365;-67
2022/01/25 07:02:12;;;;;;;2.77;2.53;;;;;;;0.85;39.06;99959.91;5108633;28;20046;-67
2022/01/25 07:04:38;;;;;;;3.63;2.50;;;;;;;1.03;38.87;99981.53;5091620;28;20518;-67
2022/01/25 07:07:04;;;;;;;2.87;2.20;;;;;;;1.01;39.29;99978.16;5108793;28;20063;-67
2022/01/25 07:09:30;;;;;;;2.30;2.10;;;;;;;0.93;39.33;99976.00;5108595;28;20065;-67
2022/01/25 07:11:56;;;;;;;3.43;2.50;;;;;;;0.64;38.83;99940.25;5109850;28;20502;-67
2022/01/25 07:14:22;;;;;;;2.23;2.03;;;;;;;0.77;38.96;99956.06;5109651;28;20039;-68
2022/01/25 07:16:47;;;;;;;2.47;2.23;;;;;;;0.74;39.28;99958.84;5110183;28;20484;-67
2022/01/25 07:19:14;;;;;;;4.13;2.40;;;;;;;0.91;39.48;99961.31;5109923;28;20031;-67
2022/01/25 07:21:39;;;;;;;1.87;1.77;;;;;;;0.75;39.32;99966.63;5109700;28;20138;-67
2022/01/25 07:24:05;;;;;;;1.43;1.33;;;;;;;0.87;39.21;99965.88;5108370;28;20472;-67
2022/01/25 07:26:32;;;;;;;2.33;2.13;;;;;;;0.75;39.40;99966.63;5106505;28;20040;-67
2022/01/25 07:28:58;;;;;;;4.47;3.97;;;;;;;0.90;39.40;99967.47;5088284;28;20212;-67
2022/01/25 07:31:24;;;;;;;2.50;2.00;;;;;;;0.94;39.26;99967.19;5089657;28;20063;-67
2022/01/25 07:33:50;;;;;;;2.50;2.30;;;;;;;0.96;39.29;99949.66;5088936;28;20052;-67
2022/01/25 07:36:15;;;;;;;2.67;2.47;;;;;;;0.94;39.27;99935.81;5089429;28;20044;-67
2022/01/25 07:38:41;;;;;;;2.40;1.97;;;;;;;0.99;39.07;99927.72;5089137;28;20048;-67
2022/01/25 07:41:07;;;;;;;2.50;2.17;;;;;;;1.03;39.27;99953.59;5088252;28;20040;-67
2022/01/25 07:43:34;;;;;;;2.23;2.07;;;;;;;1.00;39.15;99942.47;5089378;28;20055;-67
2022/01/25 07:46:04;;;;;;;2.33;2.13;;;;;;;1.03;39.18;99945.75;5071097;28;20044;-67
2022/01/25 07:48:30;;;;;;;2.20;2.05;;;;;;;1.17;39.12;99945.75;5109185;28;20039;-67
2022/01/25 07:50:56;;;;;;;1.37;1.30;;;;;;;0.92;39.32;99932.44;5108658;28;20133;-67
2022/01/25 07:53:22;;;;;;;2.53;1.80;;;;;;;0.97;39.42;99934.81;5091318;28;20043;-67
2022/01/25 07:55:48;;;;;;;2.03;1.83;;;;;;;0.81;39.00;99906.13;5108156;28;20036;-68
2022/01/25 07:58:14;;;;;;;2.33;1.80;;;;;;;0.88;39.56;99920.50;5107708;28;20542;-67
2022/01/25 08:00:40;;;;;;;3.13;2.50;;;;;;;0.95;39.47;99905.31;5108454;28;20047;-68
2022/01/25 08:03:05;;;;;;;1.70;1.60;;;;;;;1.02;39.24;99911.84;5091257;28;20040;-68
2022/01/25 08:05:31;;;;;;;2.13;1.97;;;;;;;1.18;39.16;99912.59;5090538;28;20484;-68
2022/01/25 08:08:01;;;;;;;2.67;2.47;;;;;;;1.24;39.26;99912.22;5108295;28;20050;-67
2022/01/25 08:10:28;;;;;;;2.27;1.80;;;;;;;1.09;39.36;99861.69;5102572;28;20118;-67
2022/01/25 08:12:54;;;;;;;4.30;3.17;;;;;;;1.24;39.41;99889.53;5096107;28;20097;-66
2022/01/25 08:15:20;;;;;;;2.90;2.70;;;;;;;1.21;39.28;99891.50;5109156;28;20063;-66
2022/01/25 08:17:45;;;;;;;3.57;3.10;;;;;;;1.32;39.09;99895.13;5108482;28;20050;-66
2022/01/25 08:20:11;;;;;;;2.00;1.90;;;;;;;1.14;39.46;99853.53;5107957;28;20131;-67
2022/01/25 08:22:37;;;;;;;2.60;2.10;;;;;;;1.37;39.09;99898.31;5108254;28;20079;-68
2022/01/25 08:25:04;;;;;;;3.03;2.73;;;;;;;1.60;38.97;99879.41;5109070;28;20040;-67
2022/01/25 08:27:30;;;;;;;2.60;1.87;;;;;;;1.17;38.94;99866.47;5091065;28;20043;-66
2022/01/25 08:29:56;;;;;;;2.73;2.37;;;;;;;1.29;38.96;99871.75;5090979;28;20050;-67
2022/01/25 08:32:22;;;;;;;2.57;2.37;;;;;;;1.42;38.91;99877.94;5107529;28;20527;-67
2022/01/25 08:34:48;;;;;;;2.77;2.57;;;;;;;1.30;38.94;99846.44;5108985;28;20500;-67
2022/01/25 08:37:14;;;;;;;3.70;2.53;;;;;;;1.62;38.81;99876.69;5109214;28;20736;-67
2022/01/25 08:39:40;;;;;;;3.20;2.03;;;;;;;1.46;38.87;99873.38;5090226;28;20126;-68
2022/01/25 08:42:08;;;;;;;1.60;1.50;;;;;;;1.45;39.17;99869.91;5092757;28;20517;-69
2022/01/25 08:44:34;;;;;;;4.73;3.60;;;;;;;1.15;39.15;99839.56;5092892;28;20044;-67
2022/01/25 08:47:00;;;;;;;3.53;2.27;;;;;;;1.27;39.28;99854.50;5091656;28;20043;-66
2022/01/25 08:49:27;;;;;;;3.07;2.87;;;;;;;1.29;39.64;99852.63;5092643;28;20069;-67
2022/01/25 08:51:53;;;;;;;3.83;3.27;;;;;;;1.54;39.45;99847.53;5091361;28;20172;-67
2022/01/25 08:54:19;;;;;;;2.57;2.07;;;;;;;1.38;39.43;99841.59;5091460;28;20051;-67
2022/01/25 08:56:45;;;;;;;4.23;3.40;;;;;;;1.51;39.44;99818.94;5092411;28;20108;-67
2022/01/25 08:59:11;;;;;;;3.57;2.47;;;;;;;1.44;39.27;99822.88;5090493;28;20032;-67
2022/01/25 09:01:37;;;;;;;2.67;2.47;;;;;;;1.51;39.40;99817.16;5091273;28;20059;-67
2022/01/25 09:04:04;;;;;;;3.00;2.53;;;;;;;1.57;39.10;99811.53;5092192;28;20348;-67
2022/01/25 09:06:30;;;;;;;4.07;3.10;;;;;;;1.72;39.38;99802.69;5094149;28;20131;-66
2022/01/25 09:09:01;;;;;;;2.30;2.10;;;;;;;2.08;39.30;99804.72;5091016;28;20514;-67
2022/01/25 09:11:28;;;;;;;3.58;3.20;;;;;;;1.77;39.15;99800.63;5092108;28;20066;-66
2022/01/25 09:13:54;;;;;;;2.17;2.07;;;;;;;1.59;39.24;99796.59;5091256;28;20097;-67
2022/01/25 09:16:20;;;;;;;8.00;3.67;;;;;;;1.60;39.32;99803.50;5090996;28;20048;-68
2022/01/25 09:18:46;;;;;;;2.20;2.03;;;;;;;1.69;39.22;99792.44;5091643;28;20070;-65
2022/01/25 09:21:11;;;;;;;3.03;2.73;;;;;;;1.65;39.40;99804.03;5090562;28;20071;-66
2022/01/25 09:23:37;;;;;;;3.13;2.50;;;;;;;1.72;39.47;99800.09;5090892;28;20059;-66
2022/01/25 09:26:03;;;;;;;4.13;3.03;;;;;;;1.88;39.27;99793.88;5090130;28;20131;-65
2022/01/25 09:28:29;;;;;;;3.27;2.87;;;;;;;1.84;39.05;99785.38;5092697;28;20079;-65
2022/01/25 09:30:56;;;;;;;3.63;3.33;;;;;;;1.76;39.43;99743.13;5091714;28;20071;-65
2022/01/25 09:33:23;;;;;;;4.53;3.60;;;;;;;1.85;39.43;99749.53;5091402;28;20073;-69
2022/01/25 09:35:50;;;;;;;3.53;3.13;;;;;;;2.12;39.04;99794.88;5089890;28;20078;-67
2022/01/25 09:38:16;;;;;;;3.97;2.43;;;;;;;1.87;38.94;99790.41;5089298;28;20040;-67
2022/01/25 09:40:42;;;;;;;2.90;2.63;;;;;;;1.74;38.72;99742.38;5090705;28;20040;-65
2022/01/25 09:43:09;;;;;;;3.30;3.00;;;;;;;2.19;39.15;99757.69;5091566;28;20105;-68
2022/01/25 09:45:35;;;;;;;3.67;3.00;;;;;;;1.98;38.88;99738.16;5089728;28;20566;-67
2022/01/25 09:48:03;;;;;;;3.63;3.20;;;;;;;2.30;38.84;99780.53;5089926;28;20048;-66
2022/01/25 09:50:28;;;;;;;3.70;3.10;;;;;;;2.06;38.77;99761.22;5090686;28;20036;-67
2022/01/25 09:52:54;;;;;;;5.97;3.57;;;;;;;2.06;38.74;99751.56;5090249;28;20052;-68
2022/01/25 09:55:23;;;;;;;4.20;3.67;;;;;;;2.45;38.98;99748.91;5089942;28;20084;-70
2022/01/25 09:57:49;;;;;;;3.03;2.20;;;;;;;1.97;39.04;99694.56;5089407;28;20075;-69
2022/01/25 10:00:19;;;;;;;4.20;3.60;;;;;;;2.37;38.71;99740.72;5090710;28;20393;-67
2022/01/25 10:02:55;;;;;;;7.97;4.20;;;;;;;2.34;39.12;99722.56;5089470;28;20054;-69
2022/01/25 10:05:30;;;;;;;6.40;4.03;;;;;;;2.41;39.23;99718.63;5090852;28;20206;-68
2022/01/25 10:08:11;;;;;;;4.97;3.90;;;;;;;2.59;38.76;99706.84;5089886;28;20043;-66
2022/01/25 10:10:44;;;;;;;3.65;2.13;;;;;;;2.61;39.03;99707.59;5090504;28;20590;-65
2022/01/25 10:13:35;;;;;;;2.20;1.90;;;;;;;2.71;38.68;99706.00;5088926;28;20044;-66
2022/01/25 10:16:08;;;;;;;5.32;3.53;;;;;;;2.61;38.99;99704.13;5089490;28;20117;-65
2022/01/25 10:18:41;;;;;;;3.87;2.90;;;;;;;2.89;38.46;99690.75;5072760;28;20102;-65
2022/01/25 10:21:14;;;;;;;4.97;3.47;;;;;;;2.71;38.89;99689.41;5090350;28;20116;-66
2022/01/25 10:30:14;;;;;;;2.83;2.60;;;;;;;2.34;39.15;99656.25;5089270;28;20044;-66
2022/01/25 10:32:40;;;;;;;4.20;3.40;;;;;;;2.31;39.63;99659.91;5072127;28;20048;-67
2022/01/25 10:35:14;;;;;;;1.77;1.67;;;;;;;2.88;39.18;99652.34;5085199;28;20138;-66
2022/01/25 10:37:41;;;;;;;5.47;3.83;;;;;;;2.60;39.19;99650.84;5089351;28;20055;-66
2022/01/25 10:40:09;;;;;;;4.97;3.13;;;;;;;2.51;39.11;99641.00;5089091;28;20071;-66
2022/01/25 10:42:35;;;;;;;1.87;1.77;;;;;;;2.20;39.04;99640.63;5089780;28;20044;-66
2022/01/25 10:45:03;;;;;;;4.30;3.07;;;;;;;2.29;38.68;99606.75;5088846;28;20051;-65
2022/01/25 10:47:50;;;;;;;3.57;3.03;;;;;;;2.83;38.83;99641.38;5090309;28;20055;-66
2022/01/25 10:50:23;;;;;;;2.47;2.20;;;;;;;2.63;39.09;99632.28;5090282;28;20047;-67
2022/01/25 10:53:09;;;;;;;3.97;3.13;;;;;;;2.79;39.41;99622.38;5072987;28;20044;-66
2022/01/25 10:55:36;;;;;;;6.13;4.20;;;;;;;2.45;39.88;99606.53;5072421;28;20046;-67
2022/01/25 10:58:04;;;;;;;4.67;2.97;;;;;;;2.61;39.85;99613.22;5071927;28;20138;-66
2022/01/25 11:00:33;;;;;;;5.00;3.13;;;;;;;2.79;40.10;99617.13;5088247;28;20048;-66
2022/01/25 11:03:01;;;;;;;4.17;2.80;;;;;;;2.62;39.69;99614.03;5072005;28;20643;-68
2022/01/25 11:05:33;;;;;;;2.57;2.10;;;;;;;2.89;39.30;99618.13;5089356;28;20519;-67
2022/01/25 11:08:13;;;;;;;4.83;3.00;;;;;;;2.99;39.94;99568.47;5090130;28;20059;-68
2022/01/25 11:10:46;;;;;;;3.00;2.63;;;;;;;3.16;39.66;99617.94;5072274;28;20752;-68
2022/01/25 11:13:33;;;;;;;4.13;3.00;;;;;;;2.85;39.65;99589.63;5087855;28;20036;-68
2022/01/25 11:16:01;;;;;;;5.60;3.10;;;;;;;2.90;40.10;99582.25;5074531;28;20048;-67
2022/01/25 11:18:30;;;;;;;3.13;2.30;;;;;;;2.81;39.09;99560.19;5092295;28;20043;-68
2022/01/25 11:21:00;;;;;;;2.63;2.00;;;;;;;3.03;39.49;99589.13;5108796;28;20051;-69
2022/01/25 11:23:26;;;;;;;4.50;3.13;;;;;;;2.67;39.41;99567.34;5108039;28;20100;-68
2022/01/25 11:25:54;;;;;;;4.83;2.80;;;;;;;2.82;39.37;99568.88;5091942;28;20028;-67
2022/01/25 11:28:19;;;;;;;7.47;3.57;;;;;;;2.64;39.78;99581.53;5091172;28;20047;-69
2022/01/25 11:30:46;;;;;;;3.57;2.70;;;;;;;2.94;39.90;99568.81;5106333;28;20076;-67
2022/01/25 11:33:13;;;;;;;4.83;3.23;;;;;;;2.90;39.06;99558.66;5089440;28;20528;-66
2022/01/25 11:35:40;;;;;;;3.63;2.57;;;;;;;2.96;39.00;99550.34;5072307;28;20415;-66
2022/01/25 11:42:05;;;;;;;1.13;1.07;;;;;;;3.10;38.28;99547.53;5088090;28;20051;-66
2022/01/25 11:44:31;;;;;;;2.00;1.67;;;;;;;2.19;38.41;99513.19;5101902;28;20035;-70
2022/01/25 11:47:06;;;;;;;2.07;1.93;;;;;;;2.58;38.71;99487.59;5089619;28;20133;-67
2022/01/25 11:49:32;;;;;;;1.80;1.70;;;;;;;2.50;39.06;99524.00;5105819;28;20043;-66
2022/01/25 11:52:13;;;;;;;2.07;1.90;;;;;;;2.91;38.48;99534.94;5105458;28;20063;-67
2022/01/25 11:54:40;;;;;;;1.70;1.60;;;;;;;2.59;38.89;99540.84;5088168;28;20036;-67
2022/01/25 11:57:15;;;;;;;1.63;1.33;;;;;;;2.64;38.83;99530.88;5107729;28;20050;-66
2022/01/25 11:59:43;;;;;;;3.40;2.50;;;;;;;2.48;38.81;99515.41;5090562;28;20047;-67
2022/01/25 12:02:09;;;;;;;3.33;2.67;;;;;;;2.17;38.95;99497.59;5109142;28;20038;-68
2022/01/25 12:04:35;;;;;;;2.33;1.83;;;;;;;2.15;38.95;99499.50;5091738;28;20050;-68
2022/01/25 12:07:09;;;;;;;2.40;1.90;;;;;;;2.15;39.12;99499.50;5058610;28;20682;-67
2022/01/25 12:09:47;;;;;;;2.43;2.23;;;;;;;2.58;39.03;99526.06;5076244;28;20610;-69
2022/01/25 12:12:15;;;;;;;1.43;1.33;;;;;;;2.31;38.87;99515.78;5107499;28;20392;-68
2022/01/25 12:14:48;;;;;;;2.67;1.83;;;;;;;2.56;39.17;99517.47;5108769;28;20126;-67
2022/01/25 12:17:26;;;;;;;1.60;1.43;;;;;;;2.52;38.83;99516.03;5112170;28;20503;-68
2022/01/25 12:19:54;;;;;;;1.83;1.10;;;;;;;2.25;39.20;99507.50;5095099;28;20069;-68
2022/01/25 12:25:31;;;;;;;2.37;2.17;;;;;;;2.61;39.53;99492.63;5095836;28;20055;-67
2022/01/25 12:28:04;;;;;;;1.87;1.77;;;;;;;2.38;39.33;99508.31;5112654;28;20035;-70
2022/01/25 12:30:40;;;;;;;1.87;1.77;;;;;;;2.26;39.00;99456.81;5112223;28;20519;-69
2022/01/25 12:33:25;;;;;;;2.00;1.87;;;;;;;2.50;39.24;99492.56;5095243;28;20063;-68
2022/01/25 12:35:57;;;;;;;2.40;2.20;;;;;;;2.48;39.43;99481.34;5100804;28;20051;-68
2022/01/25 12:38:38;;;;;;;3.30;3.00;;;;;;;2.68;39.13;99499.06;5092337;28;20032;-68
2022/01/25 12:41:18;;;;;;;3.07;2.43;;;;;;;2.77;39.26;99484.44;5091541;28;20039;-68
2022/01/25 12:43:48;;;;;;;2.73;2.30;;;;;;;2.85;39.71;99501.31;5092667;28;20040;-68
2022/01/25 12:46:22;;;;;;;3.70;2.65;;;;;;;2.81;39.41;99452.66;5090817;28;20093;-69
2022/01/25 12:48:57;;;;;;;2.53;2.30;;;;;;;3.15;39.14;99488.50;5057691;28;20052;-69
2022/01/25 12:51:25;;;;;;;3.57;2.73;;;;;;;2.98;39.91;99506.47;5092504;28;20086;-69
2022/01/25 12:53:53;;;;;;;3.90;2.40;;;;;;;2.95;40.41;99498.84;5074167;28;20032;-69
2022/01/25 12:56:21;;;;;;;4.00;2.87;;;;;;;2.97;39.36;99499.53;5092609;28;20040;-67
2022/01/25 12:58:51;;;;;;;3.03;1.93;;;;;;;3.22;40.09;99497.63;5058466;28;20051;-69
2022/01/25 13:01:19;;;;;;;4.32;2.90;;;;;;;3.07;40.13;99501.41;5092216;28;20123;-68
2022/01/25 13:03:52;;;;;;;3.87;2.70;;;;;;;3.16;39.17;99502.47;5074201;28;20040;-69
2022/01/25 13:06:26;;;;;;;6.00;3.63;;;;;;;2.97;38.88;99499.53;5073800;28;20044;-69
2022/01/25 13:09:44;;;;;;;2.17;1.70;;;;;;;3.05;39.58;99503.28;5090811;28;20047;-68
2022/01/25 13:17:12;;;;;;;4.97;3.00;;;;;;;3.02;39.38;99453.69;5074723;28;20059;-68
2022/01/25 13:19:49;;;;;;;2.30;2.03;;;;;;;3.34;39.90;99478.31;5073657;28;20165;-68
2022/01/25 13:22:18;;;;;;;3.27;2.77;;;;;;;3.22;38.72;99475.78;5091829;28;20052;-68
2022/01/25 13:27:51;;;;;;;2.07;1.67;;;;;;;2.46;38.38;99471.94;5067279;28;20507;-68
2022/01/25 13:33:11;;;;;;;3.30;2.30;;;;;;;2.66;38.76;99466.88;5091094;28;20336;-69
2022/01/25 13:35:40;;;;;;;1.57;1.43;;;;;;;2.41;38.91;99456.53;5090304;28;20040;-67
2022/01/25 13:38:21;;;;;;;4.57;3.00;;;;;;;2.07;38.84;99448.59;5073265;28;20413;-68
2022/01/25 13:45:56;;;;;;;2.27;2.07;;;;;;;2.21;39.00;99466.78;5091564;28;20872;-69
2022/01/25 13:48:24;;;;;;;2.05;1.85;;;;;;;1.92;38.88;99458.38;5089606;28;21014;-67
2022/01/25 13:50:59;;;;;;;3.30;2.63;;;;;;;2.45;38.86;99452.72;5090064;28;20047;-67
2022/01/25 13:53:26;;;;;;;3.17;2.63;;;;;;;2.16;39.29;99443.53;5090025;28;20495;-69
2022/01/25 13:55:54;;;;;;;5.07;3.33;;;;;;;2.38;39.63;99441.03;5107540;28;20047;-69
2022/01/25 13:58:23;;;;;;;1.40;1.30;;;;;;;2.26;39.08;99455.00;5092353;28;20503;-70
2022/01/25 14:00:49;;;;;;;5.30;3.13;;;;;;;1.80;38.87;99424.38;5076596;28;20042;-67
2022/01/25 14:03:16;;;;;;;2.67;2.30;;;;;;;1.98;39.37;99442.22;5110661;28;20046;-67
2022/01/25 14:05:43;;;;;;;2.53;1.90;;;;;;;1.82;39.08;99438.16;5072452;28;20054;-68
2022/01/25 14:08:09;;;;;;;4.93;3.33;;;;;;;1.74;39.51;99415.16;5108040;28;20130;-68
2022/01/25 14:10:35;;;;;;;2.77;2.10;;;;;;;1.72;39.01;99432.75;5110484;28;20427;-69